Time;durP1;ratioP1;P1;durP2;ratioP2;P2;SDS_P1;SDS_P2;PMS_P1;PMS_P2;Temp;Humidity;BMP_temperature;BMP_pressure;BME280_temperature;BME280_humidity;BME280_pressure;Samples;Min_cycle;Max_cycle;Signal;HPM_P1;HPM_P2
2022/09/25 00:00:34;;;;;;;5.57;2.25;;;12.80;99.90;;;;;;5039605;28;20045;-66
2022/09/25 00:03:00;;;;;;;9.15;2.90;;;12.80;99.90;;;;;;5055495;28;20041;-67
2022/09/25 00:05:26;;;;;;;7.47;2.25;;;12.80;99.90;;;;;;5039012;28;20340;-66
2022/09/25 00:07:52;;;;;;;9.32;2.33;;;12.60;99.90;;;;;;5039606;28;20033;-66
2022/09/25 00:10:18;;;;;;;8.82;2.33;;;12.60;99.90;;;;;;5038742;28;20120;-66
2022/09/25 00:12:44;;;;;;;10.95;2.40;;;12.60;99.90;;;;;;5039434;28;20060;-66
2022/09/25 00:15:10;;;;;;;7.22;2.22;;;12.60;99.90;;;;;;5071904;28;20026;-66
2022/09/25 00:17:35;;;;;;;13.15;3.20;;;12.50;99.90;;;;;;5039422;28;20036;-66
2022/09/25 00:20:01;;;;;;;6.47;2.40;;;12.50;99.90;;;;;;5072038;28;20370;-66
2022/09/25 00:22:29;;;;;;;11.30;2.40;;;12.50;99.90;;;;;;5039204;28;20061;-66
2022/09/25 00:24:55;;;;;;;7.47;2.10;;;12.50;99.90;;;;;;5071554;28;20029;-66
2022/09/25 00:27:21;;;;;;;8.02;2.25;;;12.40;99.90;;;;;;5055077;28;20042;-66
2022/09/25 00:29:46;;;;;;;6.40;2.00;;;12.40;99.90;;;;;;5071959;28;20041;-66
2022/09/25 00:32:14;;;;;;;7.90;2.20;;;12.40;99.90;;;;;;5039198;28;20026;-67
2022/09/25 00:34:40;;;;;;;8.93;2.38;;;12.30;99.90;;;;;;5039156;28;20304;-66
2022/09/25 00:37:06;;;;;;;7.53;2.17;;;12.30;99.90;;;;;;5054799;28;20025;-66
2022/09/25 00:39:32;;;;;;;8.75;2.45;;;12.40;99.90;;;;;;5071409;28;20026;-66
2022/09/25 00:41:58;;;;;;;7.05;2.40;;;12.30;99.90;;;;;;5038454;28;20408;-67
2022/09/25 00:45:04;;;;;;;6.40;2.53;;;12.30;99.90;;;;;;5038866;28;20029;-67
2022/09/25 00:47:43;;;;;;;12.20;2.70;;;12.20;99.90;;;;;;5040827;28;20045;-66
2022/09/25 00:50:30;;;;;;;13.27;2.63;;;12.20;99.90;;;;;;5037749;28;20047;-66
2022/09/25 00:53:05;;;;;;;9.73;2.42;;;12.10;99.90;;;;;;5038854;28;20026;-66
2022/09/25 00:55:32;;;;;;;7.53;2.45;;;12.00;99.90;;;;;;5038671;28;20099;-66
2022/09/25 00:58:01;;;;;;;6.32;2.30;;;12.00;99.90;;;;;;5054477;28;20336;-66
2022/09/25 01:00:27;;;;;;;9.95;2.47;;;12.00;99.90;;;;;;5038660;28;20038;-66
2022/09/25 01:02:55;;;;;;;7.00;2.50;;;12.00;99.90;;;;;;5038562;28;20049;-66
2022/09/25 01:05:26;;;;;;;7.60;2.40;;;12.00;99.90;;;;;;5038468;28;20025;-66
2022/09/25 01:07:55;;;;;;;12.57;3.03;;;12.00;99.90;;;;;;5038544;28;20033;-66
2022/09/25 01:10:21;;;;;;;10.20;3.08;;;12.00;99.90;;;;;;5037401;28;20033;-66
2022/09/25 01:12:49;;;;;;;8.60;2.75;;;12.00;99.90;;;;;;5037046;28;20049;-66
2022/09/25 01:15:19;;;;;;;6.90;3.00;;;11.90;99.90;;;;;;5037580;28;20411;-68
2022/09/25 01:18:30;;;;;;;7.03;2.72;;;11.90;99.90;;;;;;5070883;28;20110;-66
2022/09/25 01:21:43;;;;;;;6.45;2.65;;;11.80;99.90;;;;;;5045073;28;20037;-66
2022/09/25 01:24:33;;;;;;;11.10;2.90;;;11.80;99.90;;;;;;5048341;28;20037;-65
2022/09/25 01:27:14;;;;;;;6.40;3.10;;;11.80;99.90;;;;;;5038713;28;20026;-66
2022/09/25 01:30:01;;;;;;;7.55;2.95;;;11.80;99.90;;;;;;5037966;28;20460;-66
2022/09/25 01:32:42;;;;;;;7.10;3.05;;;11.70;99.90;;;;;;5038265;28;20033;-66
2022/09/25 01:35:33;;;;;;;8.88;3.15;;;11.70;99.90;;;;;;5037950;28;20021;-66
2022/09/25 01:38:37;;;;;;;9.20;3.60;;;11.70;99.90;;;;;;5037912;28;20033;-66
2022/09/25 01:41:36;;;;;;;9.13;3.00;;;11.70;99.90;;;;;;5037813;28;20080;-66
2022/09/25 01:44:20;;;;;;;7.38;3.10;;;11.70;99.90;;;;;;5037940;28;20116;-66
2022/09/25 01:46:49;;;;;;;8.40;3.25;;;11.60;99.90;;;;;;5037798;28;20060;-67
2022/09/25 01:49:28;;;;;;;9.98;3.35;;;11.60;99.90;;;;;;5069075;28;20061;-66
2022/09/25 01:51:55;;;;;;;10.35;2.97;;;11.60;99.90;;;;;;5036939;28;20045;-67
2022/09/25 01:54:31;;;;;;;8.52;3.10;;;11.60;99.90;;;;;;5070095;28;20110;-67
2022/09/25 01:57:11;;;;;;;10.07;3.20;;;11.60;99.90;;;;;;5036933;28;20030;-67
2022/09/25 02:00:00;;;;;;;9.52;3.10;;;11.60;99.90;;;;;;5036796;28;20044;-67
2022/09/25 02:02:31;;;;;;;11.20;3.50;;;11.50;99.90;;;;;;5036812;28;20054;-67
2022/09/25 02:05:04;;;;;;;9.02;3.58;;;11.50;99.90;;;;;;5037416;28;20033;-68
2022/09/25 02:07:47;;;;;;;11.43;3.83;;;11.50;99.90;;;;;;5069924;28;20124;-67
2022/09/25 02:10:35;;;;;;;8.50;2.97;;;11.50;99.90;;;;;;5037445;28;20459;-67
2022/09/25 02:13:14;;;;;;;10.82;3.30;;;11.50;99.90;;;;;;5020251;28;20036;-67
2022/09/25 02:15:54;;;;;;;8.32;3.45;;;11.60;99.90;;;;;;5069797;28;20022;-67
2022/09/25 02:21:07;;;;;;;11.07;3.78;;;11.60;99.90;;;;;;5036985;28;20307;-67
2022/09/25 02:23:44;;;;;;;10.45;3.60;;;11.50;99.90;;;;;;5036398;28;20029;-68
2022/09/25 02:26:25;;;;;;;6.70;3.22;;;11.40;99.90;;;;;;5037251;28;20032;-68
2022/09/25 02:28:52;;;;;;;9.07;3.17;;;11.40;99.90;;;;;;5036263;28;20044;-66
2022/09/25 02:31:21;;;;;;;10.15;3.60;;;11.40;99.90;;;;;;5036384;28;20029;-66
2022/09/25 02:33:49;;;;;;;14.30;4.18;;;11.40;99.90;;;;;;5037007;28;20195;-66
2022/09/25 02:36:19;;;;;;;9.30;3.58;;;11.40;99.90;;;;;;5036986;28;20033;-65
2022/09/25 02:38:47;;;;;;;8.98;4.03;;;11.40;99.90;;;;;;5036247;28;20087;-66
2022/09/25 02:41:46;;;;;;;11.40;3.85;;;11.40;99.90;;;;;;5044727;22;20410;-66
2022/09/25 02:44:36;;;;;;;8.80;3.80;;;11.40;99.90;;;;;;4996945;28;20045;-65
2022/09/25 02:47:09;;;;;;;12.80;3.75;;;11.40;99.90;;;;;;4997568;28;20030;-66
2022/09/25 02:49:55;;;;;;;8.40;3.63;;;11.30;99.90;;;;;;4996599;28;20095;-66
2022/09/25 02:52:30;;;;;;;7.90;4.15;;;11.30;99.90;;;;;;4987298;28;20042;-66
2022/09/25 02:55:11;;;;;;;11.50;4.03;;;11.30;99.90;;;;;;4997751;28;20040;-66
2022/09/25 02:58:15;;;;;;;12.68;4.50;;;11.30;99.90;;;;;;4997567;28;20336;-66
2022/09/25 03:00:45;;;;;;;8.13;4.25;;;11.40;99.90;;;;;;4997354;28;20026;-66
2022/09/25 03:03:14;;;;;;;11.73;4.35;;;11.40;99.90;;;;;;4997456;28;20119;-66
2022/09/25 03:05:41;;;;;;;13.07;4.50;;;11.30;99.90;;;;;;4996704;28;20049;-67
2022/09/25 03:10:52;;;;;;;9.77;4.10;;;11.30;99.90;;;;;;4997224;28;20043;-68
2022/09/25 03:13:22;;;;;;;12.68;4.60;;;11.20;99.90;;;;;;4996607;28;20109;-67
2022/09/25 03:15:57;;;;;;;10.50;4.75;;;11.10;99.90;;;;;;4997266;28;20026;-66
2022/09/25 03:18:24;;;;;;;10.18;3.83;;;11.10;99.90;;;;;;4996521;28;20420;-67
2022/09/25 03:20:51;;;;;;;12.43;4.50;;;11.20;99.90;;;;;;4996532;28;20311;-67
2022/09/25 03:23:17;;;;;;;11.00;4.70;;;11.20;99.90;;;;;;4996411;28;20391;-67
2022/09/25 03:25:43;;;;;;;9.70;4.40;;;11.20;99.90;;;;;;4996428;28;20311;-67
2022/09/25 03:28:10;;;;;;;8.73;4.30;;;11.20;99.90;;;;;;4996467;28;20042;-67
2022/09/25 03:30:40;;;;;;;13.95;4.47;;;11.10;99.90;;;;;;4996336;28;20298;-66
2022/09/25 03:33:12;;;;;;;9.90;4.22;;;11.00;99.90;;;;;;4997114;28;20042;-66
2022/09/25 03:35:38;;;;;;;12.65;4.90;;;11.00;99.90;;;;;;4998632;28;20298;-67
2022/09/25 03:38:05;;;;;;;12.05;4.68;;;11.00;99.90;;;;;;5000017;28;20014;-67
2022/09/25 03:40:31;;;;;;;10.20;4.55;;;11.10;99.90;;;;;;5000000;28;20362;-67
2022/09/25 03:42:56;;;;;;;7.88;4.50;;;11.00;99.90;;;;;;4983644;28;20058;-67
2022/09/25 03:45:22;;;;;;;10.30;4.25;;;11.00;99.90;;;;;;4999815;28;20038;-67
2022/09/25 03:47:48;;;;;;;10.95;4.43;;;11.00;99.90;;;;;;4983619;28;20030;-67
2022/09/25 03:50:14;;;;;;;9.90;4.45;;;10.90;99.90;;;;;;5000508;28;20042;-67
2022/09/25 03:52:40;;;;;;;10.15;4.43;;;10.90;99.90;;;;;;5000459;28;20049;-67
2022/09/25 03:55:06;;;;;;;8.32;4.53;;;10.90;99.90;;;;;;5000844;28;20342;-67
2022/09/25 03:57:32;;;;;;;7.03;3.92;;;10.80;99.90;;;;;;5000970;28;20109;-67
2022/09/25 04:00:00;;;;;;;10.25;4.90;;;10.80;99.90;;;;;;4983607;28;20149;-66
2022/09/25 04:02:27;;;;;;;11.77;4.50;;;10.90;99.90;;;;;;5000637;28;20022;-67
2022/09/25 04:04:54;;;;;;;9.25;4.43;;;11.00;99.90;;;;;;4999447;28;20034;-67
2022/09/25 04:07:21;;;;;;;9.38;4.68;;;10.90;99.90;;;;;;4999517;28;20072;-66
2022/09/25 04:09:47;;;;;;;8.63;4.85;;;10.80;99.90;;;;;;4999310;28;20291;-67
2022/09/25 04:12:13;;;;;;;12.73;4.70;;;10.80;99.90;;;;;;4983292;28;20185;-67
2022/09/25 04:14:40;;;;;;;13.43;4.88;;;10.70;99.90;;;;;;4999322;28;20039;-69
2022/09/25 04:17:06;;;;;;;10.20;4.93;;;10.70;99.90;;;;;;5000084;28;20031;-68
2022/09/25 04:19:32;;;;;;;14.18;5.20;;;10.80;99.90;;;;;;4983115;28;20030;-67
2022/09/25 04:21:58;;;;;;;9.55;4.70;;;10.80;99.90;;;;;;4951568;28;20038;-68
2022/09/25 04:27:09;;;;;;;8.00;4.72;;;10.80;99.90;;;;;;4999344;28;20129;-66
2022/09/25 04:29:36;;;;;;;10.32;5.65;;;10.80;99.90;;;;;;4999703;28;20084;-66
2022/09/25 04:34:46;;;;;;;11.98;4.75;;;10.90;99.90;;;;;;4985319;28;20358;-67
2022/09/25 04:37:12;;;;;;;10.70;5.30;;;11.00;99.90;;;;;;4982860;28;20038;-65
2022/09/25 04:39:39;;;;;;;14.30;5.32;;;11.00;99.90;;;;;;4999295;28;20505;-66
2022/09/25 04:42:05;;;;;;;15.77;5.10;;;10.90;99.90;;;;;;4998653;28;20148;-67
2022/09/25 04:44:31;;;;;;;10.60;4.80;;;10.90;99.90;;;;;;4999478;28;20073;-66
2022/09/25 04:46:57;;;;;;;16.38;5.95;;;10.80;99.90;;;;;;4981841;28;20069;-66
2022/09/25 04:49:22;;;;;;;13.38;5.72;;;10.80;99.90;;;;;;4982612;28;20410;-67
2022/09/25 04:51:48;;;;;;;9.80;5.03;;;10.80;99.90;;;;;;4998648;28;20035;-67
2022/09/25 04:54:15;;;;;;;8.38;5.10;;;10.80;99.90;;;;;;4999043;28;20041;-67
2022/09/25 04:56:43;;;;;;;12.55;5.53;;;10.70;99.90;;;;;;4982633;28;20046;-66
2022/09/25 04:59:16;;;;;;;9.20;4.63;;;10.60;99.90;;;;;;4999230;28;20089;-67
2022/09/25 05:01:42;;;;;;;11.68;5.40;;;10.60;99.90;;;;;;4998487;28;20042;-67
2022/09/25 05:04:08;;;;;;;11.23;5.53;;;10.60;99.90;;;;;;4999112;28;20031;-67
2022/09/25 05:06:34;;;;;;;15.60;5.20;;;10.50;99.90;;;;;;4998498;28;20035;-67
2022/09/25 05:08:59;;;;;;;7.18;4.75;;;10.50;99.90;;;;;;4982227;28;20121;-67
2022/09/25 05:11:25;;;;;;;9.40;4.78;;;10.50;99.90;;;;;;4998365;28;20045;-67
2022/09/25 05:13:51;;;;;;;7.95;4.65;;;10.40;99.90;;;;;;4998230;28;20184;-67
2022/09/25 05:16:18;;;;;;;8.82;4.90;;;10.30;99.90;;;;;;4998967;28;20042;-67
2022/09/25 05:18:44;;;;;;;9.88;4.93;;;10.30;99.90;;;;;;4981959;28;20060;-66
2022/09/25 05:21:10;;;;;;;10.98;5.07;;;10.40;99.90;;;;;;4982112;28;20034;-67
2022/09/25 05:23:36;;;;;;;8.57;4.60;;;10.40;99.90;;;;;;4998175;28;20132;-67
2022/09/25 05:26:02;;;;;;;8.63;5.10;;;10.30;99.90;;;;;;4998077;28;20058;-67
2022/09/25 05:28:29;;;;;;;9.25;5.32;;;10.30;99.90;;;;;;4965829;28;20038;-67
2022/09/25 05:31:01;;;;;;;14.88;5.40;;;10.40;99.90;;;;;;4998501;28;20026;-66
2022/09/25 05:33:27;;;;;;;12.30;5.60;;;10.50;99.90;;;;;;4997566;28;20049;-67
2022/09/25 05:35:53;;;;;;;11.27;5.43;;;10.50;99.90;;;;;;4998315;28;20390;-67
2022/09/25 05:38:19;;;;;;;8.48;4.90;;;10.50;99.90;;;;;;4998993;28;20040;-66
2022/09/25 05:40:44;;;;;;;12.85;5.50;;;10.40;99.90;;;;;;4998287;28;20066;-67
2022/09/25 05:43:13;;;;;;;9.82;5.57;;;10.40;99.90;;;;;;4981281;28;20141;-67
2022/09/25 05:45:39;;;;;;;8.00;4.80;;;10.40;99.90;;;;;;4997517;28;20073;-67
2022/09/25 05:48:07;;;;;;;7.70;4.85;;;10.30;99.90;;;;;;4998388;28;20058;-67
2022/09/25 05:50:33;;;;;;;9.90;5.00;;;10.30;99.90;;;;;;4997474;28;20034;-67
2022/09/25 05:53:00;;;;;;;7.50;4.75;;;10.30;99.90;;;;;;4997429;28;20101;-67
2022/09/25 05:55:27;;;;;;;9.45;5.10;;;10.20;99.90;;;;;;4997529;28;20056;-66
2022/09/25 05:57:53;;;;;;;11.65;4.85;;;10.20;99.90;;;;;;4998121;28;20394;-67
2022/09/25 06:00:19;;;;;;;8.60;4.80;;;10.20;99.90;;;;;;4998151;28;20053;-67
2022/09/25 06:02:49;;;;;;;9.93;4.90;;;10.20;99.90;;;;;;4998057;28;20045;-68
2022/09/25 06:05:15;;;;;;;8.88;4.88;;;10.20;99.90;;;;;;4998152;28;20402;-67
2022/09/25 06:07:41;;;;;;;12.68;5.50;;;10.30;99.90;;;;;;4997958;28;20125;-66
2022/09/25 06:10:08;;;;;;;12.20;5.25;;;10.30;99.90;;;;;;4997115;28;20030;-67
2022/09/25 06:12:34;;;;;;;11.70;5.43;;;10.40;99.90;;;;;;4997780;28;20035;-66
2022/09/25 06:15:00;;;;;;;12.38;6.05;;;10.40;99.90;;;;;;4997399;28;20044;-67
2022/09/25 06:17:26;;;;;;;11.02;5.22;;;10.40;99.90;;;;;;4997867;28;20041;-68
2022/09/25 06:19:51;;;;;;;11.77;5.53;;;10.40;99.90;;;;;;4997861;28;20049;-68
2022/09/25 06:22:17;;;;;;;11.02;5.30;;;10.50;99.90;;;;;;4997887;28;20420;-69
2022/09/25 06:24:44;;;;;;;7.80;5.43;;;10.40;99.90;;;;;;4997101;28;20132;-68
2022/09/25 06:27:10;;;;;;;9.55;5.05;;;10.40;99.90;;;;;;5013445;28;20310;-68
2022/09/25 06:29:35;;;;;;;7.80;5.10;;;10.50;99.90;;;;;;4996914;28;20045;-67
2022/09/25 06:32:02;;;;;;;8.30;5.05;;;10.50;99.90;;;;;;4997930;28;20036;-67
2022/09/25 06:34:28;;;;;;;9.30;5.70;;;10.50;99.90;;;;;;4997489;28;20022;-69
2022/09/25 06:36:54;;;;;;;13.25;5.75;;;10.60;99.90;;;;;;4996892;28;20037;-68
2022/09/25 06:39:20;;;;;;;11.35;5.97;;;10.70;99.90;;;;;;4980719;28;20461;-66
2022/09/25 06:41:45;;;;;;;10.48;5.78;;;10.80;99.90;;;;;;4996457;28;20385;-67
2022/09/25 06:44:20;;;;;;;12.00;6.18;;;10.90;99.90;;;;;;4981658;28;20053;-67
2022/09/25 06:46:53;;;;;;;9.20;6.15;;;10.90;99.90;;;;;;4996753;28;20302;-66
2022/09/25 06:49:19;;;;;;;7.18;4.90;;;11.00;99.90;;;;;;4996674;28;20058;-66
2022/09/25 06:51:45;;;;;;;11.70;6.22;;;11.00;99.90;;;;;;4996760;28;20029;-67
2022/09/25 06:54:11;;;;;;;13.05;6.70;;;11.10;99.90;;;;;;4996667;28;20061;-66
2022/09/25 06:56:37;;;;;;;13.68;6.55;;;11.20;99.90;;;;;;4980410;28;20062;-66
2022/09/25 06:59:03;;;;;;;10.50;5.85;;;11.40;99.90;;;;;;4945086;28;20394;-67
2022/09/25 07:01:29;;;;;;;11.80;6.03;;;11.40;99.90;;;;;;4977237;28;20065;-68
2022/09/25 07:03:55;;;;;;;11.75;5.88;;;11.50;99.90;;;;;;4977133;28;20067;-67
2022/09/25 07:06:25;;;;;;;9.43;6.22;;;11.50;99.90;;;;;;4977173;28;20031;-66
2022/09/25 07:08:51;;;;;;;11.88;5.88;;;11.60;99.90;;;;;;4977086;28;20035;-67
2022/09/25 07:11:19;;;;;;;11.90;6.15;;;11.60;99.90;;;;;;4981356;28;20039;-67
2022/09/25 07:13:46;;;;;;;8.90;5.55;;;11.70;99.90;;;;;;4980930;28;20027;-66
2022/09/25 07:16:15;;;;;;;9.68;5.88;;;11.90;99.90;;;;;;4981691;28;20175;-68
2022/09/25 07:18:42;;;;;;;7.70;5.13;;;12.00;99.90;;;;;;4981430;28;20030;-67
2022/09/25 07:21:14;;;;;;;8.57;5.03;;;12.10;99.90;;;;;;4997606;28;20039;-67
2022/09/25 07:23:41;;;;;;;15.43;5.63;;;12.20;99.90;;;;;;4981497;28;20118;-67
2022/09/25 07:26:15;;;;;;;12.57;6.13;;;12.30;99.90;;;;;;4981448;28;20075;-66
2022/09/25 07:28:42;;;;;;;10.35;5.68;;;12.50;99.90;;;;;;4980495;28;20030;-67
2022/09/25 07:31:18;;;;;;;11.38;5.20;;;12.60;99.90;;;;;;4981296;28;20038;-69
2022/09/25 07:33:44;;;;;;;11.75;5.20;;;12.70;99.90;;;;;;4980986;28;20039;-68
2022/09/25 07:36:11;;;;;;;6.53;4.63;;;12.80;99.90;;;;;;4980540;28;20125;-67
2022/09/25 07:38:37;;;;;;;13.63;5.10;;;13.00;99.90;;;;;;4981128;28;20307;-68
2022/09/25 07:41:05;;;;;;;10.10;4.53;;;13.00;99.90;;;;;;4996864;28;20031;-67
2022/09/25 07:43:34;;;;;;;6.63;4.00;;;13.20;99.90;;;;;;4996392;28;20063;-66
2022/09/25 07:46:00;;;;;;;10.82;4.50;;;13.30;99.90;;;;;;4980328;28;20402;-67
2022/09/25 07:48:26;;;;;;;5.47;3.65;;;13.50;99.90;;;;;;4980270;28;20035;-67
2022/09/25 07:50:53;;;;;;;8.50;3.90;;;13.60;99.90;;;;;;4980147;28;20045;-67
2022/09/25 07:53:19;;;;;;;9.68;3.90;;;13.80;99.90;;;;;;4980364;28;20081;-68
2022/09/25 07:55:46;;;;;;;6.22;3.13;;;13.90;99.90;;;;;;4980910;28;20046;-69
2022/09/25 07:58:13;;;;;;;5.55;2.85;;;14.10;99.90;;;;;;4996349;28;20396;-68
2022/09/25 08:00:39;;;;;;;6.93;2.22;;;14.30;99.90;;;;;;4980144;28;20093;-66
2022/09/25 08:03:07;;;;;;;6.70;2.55;;;14.50;99.90;;;;;;4981368;28;20042;-68
2022/09/25 08:05:33;;;;;;;7.15;2.30;;;14.60;99.90;;;;;;4980798;28;20031;-70
2022/09/25 08:07:59;;;;;;;6.65;1.83;;;14.70;99.90;;;;;;4980012;28;20285;-69
2022/09/25 08:10:24;;;;;;;4.85;1.58;;;14.70;99.90;;;;;;4980686;28;20035;-68
2022/09/25 08:12:50;;;;;;;5.03;1.50;;;14.70;99.90;;;;;;4980717;28;20034;-69
2022/09/25 08:15:16;;;;;;;4.50;1.13;;;14.80;99.90;;;;;;4979729;28;20077;-68
2022/09/25 08:17:42;;;;;;;4.82;1.23;;;14.90;99.90;;;;;;4980669;28;20042;-69
2022/09/25 08:20:09;;;;;;;3.63;0.73;;;15.00;99.90;;;;;;4979857;28;20310;-67
2022/09/25 08:22:35;;;;;;;3.53;0.95;;;15.20;99.90;;;;;;4978546;28;20030;-67
2022/09/25 08:25:03;;;;;;;7.43;1.00;;;15.30;99.90;;;;;;4979732;28;20034;-66
2022/09/25 08:27:30;;;;;;;4.22;0.90;;;15.40;99.90;;;;;;4979747;28;20314;-67
2022/09/25 08:29:56;;;;;;;4.25;1.13;;;15.40;99.90;;;;;;4980311;28;20137;-69
2022/09/25 08:32:22;;;;;;;5.25;1.00;;;15.50;99.90;;;;;;4980401;28;20026;-69
2022/09/25 08:34:48;;;;;;;4.93;0.95;;;15.40;99.90;;;;;;4979462;28;20316;-70
2022/09/25 08:37:15;;;;;;;5.68;0.90;;;15.30;99.90;;;;;;4980193;28;20039;-70
2022/09/25 08:39:41;;;;;;;3.17;1.00;;;15.30;99.90;;;;;;4979425;28;20031;-66
2022/09/25 08:42:17;;;;;;;3.10;1.10;;;15.20;99.90;;;;;;4979949;28;20055;-68
2022/09/25 08:49:00;;;;;;;7.50;1.05;;;15.20;99.90;;;;;;4980307;28;20050;-68
2022/09/25 08:50:24;;;;;;;5.65;1.10;;;15.30;99.90;;;;;;4993108;28;20101;-67
2022/09/25 08:52:55;;;;;;;4.70;1.52;;;15.30;99.90;;;;;;4979331;28;20114;-69
2022/09/25 08:56:13;;;;;;;4.90;0.90;;;15.40;99.90;;;;;;4979932;28;20034;-65
2022/09/25 08:58:30;;;;;;;3.63;0.77;;;15.50;99.90;;;;;;4979777;28;20031;-68
2022/09/25 09:01:06;;;;;;;4.25;0.75;;;15.70;99.90;;;;;;4979902;28;20126;-66
2022/09/25 09:03:43;;;;;;;4.85;0.88;;;15.70;99.90;;;;;;4978948;28;20061;-69
2022/09/25 09:06:13;;;;;;;3.92;0.90;;;15.70;99.90;;;;;;4979703;28;20050;-67
2022/09/25 09:08:42;;;;;;;5.15;0.93;;;15.70;99.90;;;;;;4978984;28;20304;-65
2022/09/25 09:11:30;;;;;;;5.50;0.65;;;15.70;99.90;;;;;;4979680;28;20075;-65
2022/09/25 09:14:05;;;;;;;3.47;0.60;;;15.90;99.90;;;;;;4979413;28;20086;-68
2022/09/25 09:17:09;;;;;;;5.57;0.70;;;15.80;99.90;;;;;;4979265;28;20126;-68
2022/09/25 09:19:37;;;;;;;4.20;0.73;;;15.90;99.90;;;;;;4977467;28;20050;-66
2022/09/25 09:22:11;;;;;;;2.25;0.50;;;16.00;99.90;;;;;;4979939;28;20038;-68
2022/09/25 09:24:59;;;;;;;2.88;0.60;;;16.10;99.90;;;;;;4979375;28;20038;-66
2022/09/25 09:27:46;;;;;;;3.03;0.63;;;16.10;99.90;;;;;;4979331;28;20410;-67
2022/09/25 09:30:15;;;;;;;6.07;0.90;;;16.10;99.90;;;;;;4962321;28;20034;-66
2022/09/25 09:33:09;;;;;;;5.57;0.80;;;16.00;99.90;;;;;;4978037;28;20058;-67
2022/09/25 09:35:49;;;;;;;4.97;0.93;;;16.10;99.90;;;;;;4979093;28;20041;-65
2022/09/25 09:38:45;;;;;;;4.03;1.00;;;16.30;99.90;;;;;;4979138;28;20031;-65
2022/09/25 09:41:17;;;;;;;3.50;0.98;;;16.30;99.90;;;;;;4978277;28;20046;-64
2022/09/25 09:44:09;;;;;;;3.23;0.60;;;16.30;99.90;;;;;;4978958;28;20042;-65
2022/09/25 09:46:36;;;;;;;4.43;1.02;;;16.50;99.90;;;;;;4978364;28;20117;-66
2022/09/25 09:49:25;;;;;;;1.92;0.70;;;16.50;99.90;;;;;;4978064;28;20130;-64
2022/09/25 09:52:09;;;;;;;3.45;0.80;;;16.60;99.90;;;;;;4978384;28;20315;-66
2022/09/25 09:54:45;;;;;;;3.97;0.85;;;16.60;99.90;;;;;;4978162;28;20022;-66
2022/09/25 09:57:24;;;;;;;2.78;0.80;;;16.70;99.90;;;;;;4977978;28;20394;-65
2022/09/25 10:00:05;;;;;;;4.43;0.70;;;16.90;99.90;;;;;;4977986;28;20307;-66
2022/09/25 10:02:44;;;;;;;2.10;1.00;;;17.10;99.90;;;;;;4978777;28;20058;-66
2022/09/25 10:05:41;;;;;;;3.75;0.70;;;17.30;99.90;;;;;;4978019;28;20050;-66
2022/09/25 10:08:10;;;;;;;3.65;0.60;;;17.50;99.90;;;;;;4979173;28;20074;-62
2022/09/25 10:10:42;;;;;;;4.63;0.75;;;17.70;99.90;;;;;;4977734;28;20054;-63
2022/09/25 10:13:31;;;;;;;2.60;0.60;;;17.70;99.90;;;;;;4978523;28;20375;-63
2022/09/25 10:16:02;;;;;;;5.35;0.80;;;17.70;99.90;;;;;;4978478;28;20026;-63
2022/09/25 10:18:36;;;;;;;2.42;0.50;;;18.00;99.90;;;;;;4978365;28;20394;-61
2022/09/25 10:22:04;;;;;;;4.40;0.55;;;18.60;99.90;;;;;;4977649;28;20030;-64
2022/09/25 10:25:03;;;;;;;2.30;0.50;;;19.30;99.90;;;;;;4919579;29;20271;-62
2022/09/25 10:27:40;;;;;;;2.13;0.50;;;20.90;99.90;;;;;;4883765;29;20432;-63
2022/09/25 10:30:20;;;;;;;2.60;0.50;;;22.10;99.90;;;;;;4964891;28;20102;-63
2022/09/25 10:33:14;;;;;;;2.13;0.47;;;23.80;99.90;;;;;;4978849;28;20090;-64
2022/09/25 10:35:44;;;;;;;3.03;0.60;;;24.50;99.90;;;;;;4978298;28;20065;-63
2022/09/25 10:38:48;;;;;;;2.47;0.73;;;25.20;99.90;;;;;;4994210;28;20047;-65
2022/09/25 10:41:17;;;;;;;1.08;0.40;;;26.00;99.90;;;;;;4978868;28;20058;-64
2022/09/25 10:43:59;;;;;;;1.67;0.45;;;26.20;95.50;;;;;;4977860;28;20054;-64
2022/09/25 10:52:18;;;;;;;1.40;0.40;;;24.40;99.90;;;;;;4978146;28;20047;-62
2022/09/25 10:54:44;;;;;;;1.55;0.30;;;24.00;99.90;;;;;;4978319;28;20031;-62
2022/09/25 10:57:32;;;;;;;1.88;0.80;;;23.50;99.90;;;;;;4977988;28;20026;-62
2022/09/25 11:00:01;;;;;;;2.10;0.30;;;23.40;99.90;;;;;;4977594;28;20034;-63
2022/09/25 11:02:34;;;;;;;1.85;0.30;;;23.10;99.90;;;;;;4977219;28;20098;-63
2022/09/25 11:05:01;;;;;;;1.95;0.50;;;23.00;99.90;;;;;;4977785;28;20400;-62
2022/09/25 11:07:27;;;;;;;1.73;0.40;;;23.40;99.90;;;;;;4978094;28;20034;-62
2022/09/25 11:09:54;;;;;;;3.53;0.50;;;23.10;99.90;;;;;;4977863;28;20360;-63
2022/09/25 11:12:26;;;;;;;2.88;0.50;;;22.70;99.90;;;;;;4978475;28;20082;-62
2022/09/25 11:15:01;;;;;;;3.38;0.50;;;22.00;99.90;;;;;;4977837;28;20019;-62
2022/09/25 11:17:41;;;;;;;1.23;0.50;;;21.40;99.90;;;;;;4977821;28;20033;-61
2022/09/25 11:20:19;;;;;;;1.25;0.57;;;20.90;99.90;;;;;;4977741;28;20053;-61
2022/09/25 11:22:51;;;;;;;1.33;0.47;;;20.50;99.90;;;;;;4978347;28;20035;-61
2022/09/25 11:25:28;;;;;;;2.20;0.55;;;20.20;99.90;;;;;;4993271;28;20031;-61
2022/09/25 11:28:07;;;;;;;3.75;0.70;;;20.00;99.90;;;;;;4977769;28;20066;-60
2022/09/25 11:30:48;;;;;;;2.95;0.70;;;19.80;99.90;;;;;;4977072;28;20034;-60
2022/09/25 11:33:17;;;;;;;4.18;0.60;;;19.50;99.90;;;;;;4976996;28;20039;-62
2022/09/25 11:35:53;;;;;;;2.78;0.57;;;19.20;99.90;;;;;;4977705;28;20018;-61
2022/09/25 11:41:40;;;;;;;3.08;0.82;;;19.20;99.90;;;;;;4977731;28;20031;-61
2022/09/25 11:44:31;;;;;;;1.38;0.40;;;19.40;99.90;;;;;;4977636;28;20035;-61
2022/09/25 11:47:14;;;;;;;1.52;0.30;;;19.80;99.90;;;;;;4977591;28;20026;-61
2022/09/25 11:49:41;;;;;;;2.20;0.50;;;20.40;99.90;;;;;;4977442;28;20041;-63
2022/09/25 11:52:09;;;;;;;0.93;0.40;;;21.70;99.90;;;;;;4977049;28;20022;-63
2022/09/25 11:54:44;;;;;;;3.00;0.50;;;22.60;99.90;;;;;;4977796;28;20395;-62
2022/09/25 11:57:18;;;;;;;2.67;0.65;;;23.30;99.90;;;;;;4980431;28;20139;-62
2022/09/25 12:00:13;;;;;;;1.60;0.38;;;24.30;99.90;;;;;;4980902;28;20035;-63
2022/09/25 12:02:51;;;;;;;1.45;0.60;;;24.60;99.90;;;;;;4980940;28;20030;-61
2022/09/25 12:05:36;;;;;;;1.95;0.60;;;24.10;99.90;;;;;;4963966;28;20480;-61
2022/09/25 12:08:17;;;;;;;2.40;0.70;;;24.10;99.90;;;;;;4980824;28;20276;-61
2022/09/25 12:10:54;;;;;;;3.92;0.77;;;23.40;99.90;;;;;;4980527;28;20291;-62
2022/09/25 12:13:50;;;;;;;4.35;1.85;;;22.50;99.90;;;;;;4979962;28;20418;-63
2022/09/25 12:16:25;;;;;;;2.67;0.70;;;22.00;99.90;;;;;;4972014;28;20035;-61
2022/09/25 12:19:07;;;;;;;2.22;0.70;;;21.20;99.90;;;;;;4980510;28;20023;-63
2022/09/25 12:21:52;;;;;;;1.73;0.80;;;20.90;99.90;;;;;;4980520;28;20035;-62
2022/09/25 12:24:33;;;;;;;1.95;0.63;;;20.70;99.90;;;;;;4980951;28;20031;-63
2022/09/25 12:27:27;;;;;;;1.88;0.85;;;20.70;99.90;;;;;;4980875;28;20066;-63
2022/09/25 12:30:16;;;;;;;2.47;0.75;;;20.70;99.90;;;;;;4980357;28;20053;-62
2022/09/25 12:33:17;;;;;;;2.45;0.68;;;20.40;99.90;;;;;;4979617;28;20030;-62
2022/09/25 12:36:34;;;;;;;4.22;0.77;;;20.30;99.90;;;;;;4979683;28;20298;-62
2022/09/25 12:39:20;;;;;;;2.78;0.60;;;20.40;99.90;;;;;;4980236;28;20038;-62
2022/09/25 12:41:54;;;;;;;1.30;0.50;;;20.60;99.90;;;;;;4979279;28;20061;-62
2022/09/25 12:44:46;;;;;;;2.33;0.45;;;21.20;99.90;;;;;;4980482;28;20035;-61
2022/09/25 12:47:36;;;;;;;1.73;0.50;;;21.50;99.90;;;;;;4980015;28;20027;-62
2022/09/25 12:50:12;;;;;;;1.83;0.47;;;22.40;99.90;;;;;;4979946;28;20410;-62
2022/09/25 12:52:47;;;;;;;1.38;0.40;;;22.90;99.90;;;;;;4979280;28;20059;-62
2022/09/25 12:55:22;;;;;;;1.25;0.30;;;22.30;99.90;;;;;;4979943;28;20038;-62
2022/09/25 12:57:58;;;;;;;2.67;0.50;;;22.60;99.90;;;;;;5042023;22;20068;-61
2022/09/25 13:00:28;;;;;;;3.75;0.77;;;23.30;99.90;;;;;;5078523;28;20051;-61
2022/09/25 13:03:38;;;;;;;0.98;0.60;;;23.90;99.90;;;;;;5078613;28;20032;-62
2022/09/25 13:06:13;;;;;;;3.05;0.70;;;24.10;99.90;;;;;;5069594;28;20048;-61
2022/09/25 13:09:06;;;;;;;1.85;0.60;;;24.30;99.90;;;;;;5078191;28;20043;-62
2022/09/25 13:11:44;;;;;;;1.95;0.50;;;23.70;99.90;;;;;;5077680;28;20036;-60
2022/09/25 13:14:28;;;;;;;1.17;0.30;;;23.80;99.90;;;;;;5078413;28;20150;-63
2022/09/25 13:16:54;;;;;;;2.28;0.75;;;23.80;99.90;;;;;;5078323;28;20016;-62
2022/09/25 13:19:28;;;;;;;4.57;0.98;;;23.80;99.90;;;;;;5077233;28;20042;-61
2022/09/25 13:22:21;;;;;;;1.08;0.40;;;23.90;99.90;;;;;;5078163;28;20029;-61
2022/09/25 13:24:51;;;;;;;2.67;0.70;;;23.90;99.90;;;;;;5076422;28;20037;-62
2022/09/25 13:27:21;;;;;;;0.45;0.40;;;24.20;99.90;;;;;;5078082;28;20025;-61
2022/09/25 13:30:05;;;;;;;1.52;0.40;;;24.80;99.90;;;;;;5094035;28;20040;-61
2022/09/25 13:32:36;;;;;;;2.70;0.50;;;25.80;99.90;;;;;;5077970;28;20342;-62
2022/09/25 13:35:15;;;;;;;1.58;0.60;;;26.40;97.30;;;;;;5077168;28;20025;-61
2022/09/25 13:37:41;;;;;;;2.20;0.60;;;27.40;96.00;;;;;;5093942;28;20063;-63